createdAt,value
2018-05-24T00:00:29.592Z,5.30
2018-05-24T00:02:57.004Z,4.03
2018-05-24T00:05:24.425Z,4.62
2018-05-24T00:07:51.927Z,5.95
2018-05-24T00:10:19.248Z,8.43
2018-05-24T00:12:46.656Z,4.37
2018-05-24T00:15:14.080Z,4.87
2018-05-24T00:17:41.488Z,4.37
2018-05-24T00:20:08.912Z,4.93
2018-05-24T00:22:36.320Z,3.90
2018-05-24T00:25:03.761Z,2.90
2018-05-24T00:27:31.167Z,4.40
2018-05-24T00:29:58.589Z,3.80
2018-05-24T00:32:25.996Z,4.93
2018-05-24T00:34:53.434Z,3.25
2018-05-24T00:37:20.844Z,4.37
2018-05-24T00:39:48.255Z,4.05
2018-05-24T00:42:15.664Z,2.87
2018-05-24T00:44:43.093Z,5.85
2018-05-24T00:47:10.505Z,4.30
2018-05-24T00:49:37.921Z,4.82
2018-05-24T00:52:05.332Z,3.65
2018-05-24T00:54:32.750Z,3.50
2018-05-24T00:57:00.165Z,3.87
2018-05-24T00:59:27.607Z,3.03
2018-05-24T01:01:55.033Z,4.00
2018-05-24T01:04:22.449Z,4.15
2018-05-24T01:06:49.864Z,4.65
2018-05-24T01:09:17.287Z,5.40
2018-05-24T01:11:44.699Z,4.62
2018-05-24T01:14:12.125Z,3.12
2018-05-24T01:16:39.538Z,4.30
2018-05-24T01:19:06.958Z,5.53
2018-05-24T01:21:34.384Z,4.55
2018-05-24T01:24:01.805Z,4.95
2018-05-24T01:26:29.210Z,4.30
2018-05-24T01:28:56.620Z,5.25
2018-05-24T01:31:24.039Z,4.87
2018-05-24T01:33:51.453Z,5.32
2018-05-24T01:36:18.868Z,4.90
2018-05-24T01:38:46.271Z,5.20
2018-05-24T01:41:13.692Z,3.72
2018-05-24T01:43:41.145Z,3.47
2018-05-24T01:46:08.566Z,2.47
2018-05-24T01:48:35.987Z,3.90
2018-05-24T01:51:03.404Z,5.72
2018-05-24T01:53:30.817Z,4.97
2018-05-24T01:55:58.230Z,6.68
2018-05-24T01:58:25.641Z,4.10
2018-05-24T02:00:53.061Z,6.53
2018-05-24T02:03:20.469Z,5.65
2018-05-24T02:05:47.886Z,6.20
2018-05-24T02:08:15.298Z,6.80
2018-05-24T02:10:42.712Z,5.60
2018-05-24T02:13:10.122Z,5.85
2018-05-24T02:15:37.539Z,3.85
2018-05-24T02:18:04.950Z,4.93
2018-05-24T02:20:32.366Z,4.12
2018-05-24T02:22:59.780Z,4.60
2018-05-24T02:25:27.197Z,7.03
2018-05-24T02:27:54.613Z,4.25
2018-05-24T02:30:22.039Z,4.30
2018-05-24T02:32:49.455Z,6.37
2018-05-24T02:35:16.873Z,3.50
2018-05-24T02:37:44.280Z,5.60
2018-05-24T02:40:11.710Z,5.78
2018-05-24T02:42:39.130Z,6.10
2018-05-24T02:45:06.536Z,6.35
2018-05-24T02:47:33.945Z,5.30
2018-05-24T02:50:01.354Z,9.30
2018-05-24T02:52:28.785Z,5.35
2018-05-24T02:54:56.197Z,2.33
2018-05-24T02:57:23.601Z,5.25
2018-05-24T02:59:51.023Z,5.93
2018-05-24T03:02:18.428Z,2.95
2018-05-24T03:04:45.852Z,6.57
2018-05-24T03:07:13.257Z,2.95
2018-05-24T03:09:40.677Z,5.03
2018-05-24T03:12:08.089Z,3.12
2018-05-24T03:14:35.509Z,4.40
2018-05-24T03:17:02.929Z,3.45
2018-05-24T03:19:30.328Z,3.97
2018-05-24T03:21:57.756Z,5.95
2018-05-24T03:24:25.177Z,2.47
2018-05-24T03:26:52.595Z,2.65
2018-05-24T03:29:20.012Z,4.32
2018-05-24T03:31:47.421Z,3.17
2018-05-24T03:34:14.829Z,5.68
2018-05-24T03:36:42.297Z,3.37
2018-05-24T03:39:09.781Z,5.07
2018-05-24T03:41:37.205Z,3.05
2018-05-24T03:44:04.616Z,3.25
2018-05-24T03:46:32.040Z,2.75
2018-05-24T03:48:59.441Z,2.75
2018-05-24T03:51:26.857Z,4.03
2018-05-24T03:53:54.267Z,3.08
2018-05-24T03:56:21.724Z,3.45
2018-05-24T03:58:49.138Z,3.58
2018-05-24T04:01:28.451Z,3.58
2018-05-24T04:03:55.856Z,2.22
2018-05-24T04:06:24.196Z,3.37
2018-05-24T04:08:51.604Z,2.62
2018-05-24T04:11:19.025Z,3.28
2018-05-24T04:13:46.457Z,2.10
2018-05-24T04:16:13.872Z,3.50
2018-05-24T04:18:41.278Z,3.72
2018-05-24T04:21:08.699Z,1.62
2018-05-24T04:23:36.173Z,2.75
2018-05-24T04:26:03.587Z,3.30
2018-05-24T04:28:31.089Z,5.15
2018-05-24T04:30:58.530Z,3.28
2018-05-24T04:33:25.936Z,2.08
2018-05-24T04:35:53.348Z,2.67
2018-05-24T04:38:20.767Z,3.47
2018-05-24T04:40:48.174Z,5.50
2018-05-24T04:43:15.604Z,3.87
2018-05-24T04:45:43.002Z,3.05
2018-05-24T04:48:10.428Z,4.62
2018-05-24T04:50:37.872Z,3.30
2018-05-24T04:53:05.300Z,3.70
2018-05-24T04:55:32.794Z,4.07
2018-05-24T04:58:00.145Z,3.80
2018-05-24T05:00:27.593Z,3.10
2018-05-24T05:02:55.013Z,3.78
2018-05-24T05:05:22.420Z,4.07
2018-05-24T05:07:49.840Z,4.43
2018-05-24T05:10:17.315Z,3.37
2018-05-24T05:12:44.736Z,3.25
2018-05-24T05:15:12.148Z,4.60
2018-05-24T05:17:39.559Z,5.35
2018-05-24T05:20:06.964Z,4.43
2018-05-24T05:22:34.381Z,4.72
2018-05-24T05:25:01.801Z,3.75
2018-05-24T05:27:29.208Z,5.32
2018-05-24T05:29:56.616Z,4.40
2018-05-24T05:32:24.028Z,4.00
2018-05-24T05:34:51.455Z,6.65
2018-05-24T05:37:18.868Z,3.33
2018-05-24T05:39:46.285Z,4.50
2018-05-24T05:42:13.741Z,4.65
2018-05-24T05:44:41.218Z,4.10
2018-05-24T05:47:08.567Z,6.10
2018-05-24T05:49:35.984Z,3.30
2018-05-24T05:52:03.414Z,2.10
2018-05-24T05:54:30.908Z,5.57
2018-05-24T05:56:58.320Z,4.93
2018-05-24T05:59:25.741Z,4.43
2018-05-24T06:01:53.259Z,3.85
2018-05-24T06:04:20.587Z,3.80
2018-05-24T06:06:47.993Z,4.07
2018-05-24T06:09:15.421Z,5.40
2018-05-24T06:11:42.825Z,4.37
2018-05-24T06:14:10.255Z,5.37
2018-05-24T06:16:37.660Z,3.53
2018-05-24T06:19:05.077Z,5.22
2018-05-24T06:21:32.512Z,4.87
2018-05-24T06:23:59.905Z,4.50
2018-05-24T06:26:27.316Z,5.70
2018-05-24T06:28:54.777Z,7.18
2018-05-24T06:31:22.193Z,4.00
2018-05-24T06:33:49.688Z,5.65
2018-05-24T06:36:17.101Z,5.72
2018-05-24T06:38:44.511Z,7.72
2018-05-24T06:41:11.941Z,6.90
2018-05-24T06:43:39.352Z,6.55
2018-05-24T06:46:06.760Z,7.80
2018-05-24T06:48:34.185Z,5.22
2018-05-24T06:51:01.595Z,6.57
2018-05-24T06:53:29.017Z,5.82
2018-05-24T06:55:56.420Z,9.13
2018-05-24T06:58:23.841Z,8.52
2018-05-24T07:00:51.248Z,6.43
2018-05-24T07:03:18.660Z,4.93
2018-05-24T07:05:46.132Z,8.93
2018-05-24T07:08:13.496Z,8.63
2018-05-24T07:10:40.910Z,9.85
2018-05-24T07:13:08.329Z,7.93
2018-05-24T07:15:35.738Z,9.13
2018-05-24T07:18:03.169Z,10.75
2018-05-24T07:20:30.581Z,10.45
2018-05-24T07:22:58.012Z,12.07
2018-05-24T07:25:25.429Z,13.55
2018-05-24T07:27:52.852Z,11.15
2018-05-24T07:30:20.278Z,11.73
2018-05-24T07:32:47.704Z,11.35
2018-05-24T07:35:15.126Z,11.68
2018-05-24T07:37:42.566Z,8.70
2018-05-24T07:40:09.956Z,15.38
2018-05-24T07:42:37.385Z,12.75
2018-05-24T07:45:04.814Z,17.90
2018-05-24T07:47:32.213Z,18.05
2018-05-24T07:49:59.638Z,14.10
2018-05-24T07:52:27.053Z,13.25
2018-05-24T07:54:54.577Z,18.60
2018-05-24T07:57:21.895Z,19.27
2018-05-24T07:59:49.341Z,19.17
2018-05-24T08:02:16.757Z,21.17
2018-05-24T08:04:44.192Z,19.92
2018-05-24T08:07:11.602Z,21.20
2018-05-24T08:09:39.026Z,24.75
2018-05-24T08:12:06.441Z,21.50
2018-05-24T08:14:33.876Z,23.80
2018-05-24T08:17:01.310Z,23.45
2018-05-24T08:19:28.743Z,23.00
2018-05-24T08:21:56.156Z,26.35
2018-05-24T08:24:23.591Z,29.23
2018-05-24T08:26:51.003Z,19.60
2018-05-24T08:29:18.440Z,27.23
2018-05-24T08:31:45.853Z,22.20
2018-05-24T08:34:13.280Z,26.12
2018-05-24T08:36:40.705Z,26.35
2018-05-24T08:39:08.136Z,19.45
2018-05-24T08:41:35.552Z,27.30
2018-05-24T08:44:02.980Z,20.67
2018-05-24T08:46:30.429Z,19.90
2018-05-24T08:48:57.855Z,22.55
2018-05-24T08:51:25.345Z,22.98
2018-05-24T08:53:52.767Z,19.35
2018-05-24T08:56:20.186Z,18.60
2018-05-24T08:58:47.716Z,17.50
2018-05-24T09:01:15.215Z,23.52
2018-05-24T09:03:42.568Z,33.22
2018-05-24T09:06:10.074Z,26.40
2018-05-24T09:08:37.500Z,21.75
2018-05-24T09:11:04.988Z,24.73
2018-05-24T09:13:32.420Z,33.67
2018-05-24T09:15:59.836Z,33.28
2018-05-24T09:18:27.355Z,25.67
2018-05-24T09:20:54.781Z,25.65
2018-05-24T09:23:22.192Z,40.10
2018-05-24T09:25:49.625Z,34.55
2018-05-24T09:28:17.052Z,39.90
2018-05-24T09:30:44.469Z,33.92
2018-05-24T09:33:11.884Z,30.80
2018-05-24T09:35:39.308Z,33.25
2018-05-24T09:38:06.730Z,31.12
2018-05-24T09:40:34.249Z,31.12
2018-05-24T09:43:01.704Z,36.85
2018-05-24T09:45:29.168Z,28.90
2018-05-24T09:47:56.615Z,26.23
2018-05-24T09:50:24.076Z,47.40
2018-05-24T09:52:51.491Z,28.58
2018-05-24T09:55:19.013Z,35.58
2018-05-24T09:57:46.448Z,28.12
2018-05-24T10:00:13.875Z,28.42
2018-05-24T10:02:41.357Z,28.80
2018-05-24T10:05:08.784Z,30.73
2018-05-24T10:07:36.266Z,33.10
2018-05-24T10:10:03.701Z,30.10
2018-05-24T10:12:31.111Z,46.00
2018-05-24T10:14:58.635Z,28.15
2018-05-24T10:17:26.061Z,36.47
2018-05-24T10:19:53.496Z,25.75
2018-05-24T10:22:20.921Z,38.25
2018-05-24T10:24:48.347Z,33.63
2018-05-24T10:27:15.818Z,32.53
2018-05-24T10:29:43.239Z,41.33
2018-05-24T10:32:10.653Z,31.40
2018-05-24T10:34:38.082Z,31.48
2018-05-24T10:37:05.500Z,41.33
2018-05-24T10:39:33.000Z,43.35
2018-05-24T10:42:00.404Z,31.85
2018-05-24T10:44:27.897Z,63.97
2018-05-24T10:46:55.316Z,42.03
2018-05-24T10:49:22.821Z,38.70
2018-05-24T10:51:50.236Z,45.33
2018-05-24T10:54:17.774Z,38.90
2018-05-24T10:56:45.104Z,42.22
2018-05-24T10:59:12.530Z,46.83
2018-05-24T11:01:39.951Z,52.80
2018-05-24T11:04:07.436Z,60.30
2018-05-24T11:06:34.857Z,60.38
2018-05-24T11:09:02.272Z,55.60
2018-05-24T11:11:29.693Z,46.20
2018-05-24T11:13:57.120Z,44.97
2018-05-24T11:16:24.543Z,42.95
2018-05-24T11:18:51.963Z,43.25
2018-05-24T11:21:19.391Z,30.90
2018-05-24T11:23:46.876Z,60.08
2018-05-24T11:26:14.360Z,68.15
2018-05-24T11:28:41.783Z,75.85
2018-05-24T11:31:09.199Z,56.97
2018-05-24T11:33:36.617Z,46.80
2018-05-24T11:36:04.045Z,49.42
2018-05-24T11:38:31.460Z,64.28
2018-05-24T11:40:58.884Z,66.95
2018-05-24T11:43:26.489Z,62.03
2018-05-24T11:45:53.737Z,56.90
2018-05-24T11:48:21.156Z,58.45
2018-05-24T11:50:48.583Z,64.53
2018-05-24T11:53:16.008Z,68.03
2018-05-24T11:55:43.436Z,43.47
2018-05-24T11:58:10.854Z,42.20
2018-05-24T12:00:38.291Z,50.78
2018-05-24T12:03:05.713Z,55.53
2018-05-24T12:05:33.138Z,50.03
2018-05-24T12:08:00.553Z,46.65
2018-05-24T12:10:27.976Z,50.10
2018-05-24T12:12:55.393Z,50.53
2018-05-24T12:15:22.824Z,47.35
2018-05-24T12:17:50.244Z,46.60
2018-05-24T12:20:17.672Z,63.65
2018-05-24T12:22:45.089Z,59.05
2018-05-24T12:25:12.512Z,49.00
2018-05-24T12:27:39.936Z,61.08
2018-05-24T12:30:07.364Z,57.67
2018-05-24T12:32:34.779Z,53.45
2018-05-24T12:35:02.201Z,61.78
2018-05-24T12:37:29.625Z,62.35
2018-05-24T12:39:57.049Z,66.30
2018-05-24T12:42:24.476Z,57.67
2018-05-24T12:44:51.897Z,61.17
2018-05-24T12:47:19.321Z,53.25
2018-05-24T12:49:46.801Z,68.22
2018-05-24T12:52:14.232Z,64.87
2018-05-24T12:54:41.648Z,66.55
2018-05-24T12:57:09.068Z,65.53
2018-05-24T12:59:36.496Z,65.55
2018-05-24T13:02:03.921Z,64.25
2018-05-24T13:04:31.360Z,41.58
2018-05-24T13:06:58.777Z,64.15
2018-05-24T13:09:26.197Z,65.07
2018-05-24T13:11:53.625Z,67.12
2018-05-24T13:14:21.041Z,71.35
2018-05-24T13:16:48.464Z,57.60
2018-05-24T13:19:15.885Z,60.20
2018-05-24T13:21:43.308Z,56.58
2018-05-24T13:24:10.721Z,47.97
2018-05-24T13:26:38.149Z,48.63
2018-05-24T13:29:05.572Z,64.95
2018-05-24T13:31:32.996Z,67.93
2018-05-24T13:34:00.409Z,61.42
2018-05-24T13:36:27.830Z,71.20
2018-05-24T13:38:55.252Z,56.03
2018-05-24T13:41:22.664Z,53.65
2018-05-24T13:43:50.080Z,54.55
2018-05-24T13:46:17.508Z,59.65
2018-05-24T13:48:44.920Z,40.80
2018-05-24T13:51:12.357Z,47.55
2018-05-24T13:53:39.776Z,47.22
2018-05-24T13:56:07.200Z,52.47
2018-05-24T13:58:34.608Z,54.03
2018-05-24T14:01:02.035Z,69.47
2018-05-24T14:03:29.448Z,57.53
2018-05-24T14:05:56.860Z,46.70
2018-05-24T14:08:24.329Z,55.90
2018-05-24T14:10:51.703Z,39.95
2018-05-24T14:13:19.128Z,41.75
2018-05-24T14:15:46.541Z,55.05
2018-05-24T14:18:13.968Z,61.83
2018-05-24T14:20:41.395Z,53.42
2018-05-24T14:23:08.883Z,49.85
2018-05-24T14:25:36.299Z,48.53
2018-05-24T14:28:03.724Z,52.80
2018-05-24T14:30:31.148Z,53.75
2018-05-24T14:32:58.571Z,47.60
2018-05-24T14:35:25.984Z,38.47
2018-05-24T14:37:53.410Z,52.78
2018-05-24T14:40:20.859Z,46.65
2018-05-24T14:42:48.276Z,52.20
2018-05-24T14:45:15.773Z,53.53
2018-05-24T14:47:43.196Z,41.88
2018-05-24T14:50:10.685Z,35.83
2018-05-24T14:52:38.148Z,41.08
2018-05-24T14:55:05.595Z,41.63
2018-05-24T14:57:33.086Z,42.72
2018-05-24T15:00:00.508Z,44.83
2018-05-24T15:02:27.929Z,43.35
2018-05-24T15:04:55.415Z,37.83
2018-05-24T15:07:22.873Z,42.08
2018-05-24T15:09:50.327Z,45.30
2018-05-24T15:12:17.760Z,47.20
2018-05-24T15:14:45.240Z,50.88
2018-05-24T15:17:12.666Z,51.55
2018-05-24T15:19:40.169Z,60.05
2018-05-24T15:22:07.623Z,50.12
2018-05-24T15:24:35.037Z,43.45
2018-05-24T15:27:02.582Z,45.60
2018-05-24T15:29:30.013Z,40.60
2018-05-24T15:31:57.445Z,43.30
2018-05-24T15:34:24.889Z,38.28
2018-05-24T15:36:52.308Z,41.33
2018-05-24T15:39:19.728Z,41.97
2018-05-24T15:41:47.269Z,41.80
2018-05-24T15:44:14.703Z,37.67
2018-05-24T15:46:42.161Z,44.03
2018-05-24T15:49:09.600Z,46.50
2018-05-24T15:51:37.073Z,41.97
2018-05-24T15:54:04.500Z,45.42
2018-05-24T15:56:31.930Z,40.53
2018-05-24T15:58:59.343Z,37.63
2018-05-24T16:01:26.764Z,54.33
2018-05-24T16:03:54.256Z,46.60
2018-05-24T16:06:21.680Z,50.05
2018-05-24T16:08:49.112Z,41.90
2018-05-24T16:11:16.532Z,34.88
2018-05-24T16:13:43.951Z,36.45
2018-05-24T16:16:11.432Z,34.53
2018-05-24T16:18:38.864Z,52.53
2018-05-24T16:21:06.272Z,36.95
2018-05-24T16:23:33.704Z,38.00
2018-05-24T16:26:01.153Z,31.00
2018-05-24T16:28:28.577Z,26.00
2018-05-24T16:30:55.993Z,25.60
2018-05-24T16:33:28.336Z,21.42
2018-05-24T16:35:55.760Z,25.10
2018-05-24T16:38:23.202Z,21.73
2018-05-24T16:40:50.614Z,35.88
2018-05-24T16:43:18.078Z,28.02
2018-05-24T16:45:46.588Z,19.58
2018-05-24T16:48:14.045Z,27.83
2018-05-24T16:50:41.457Z,30.92
2018-05-24T16:53:11.652Z,26.65
2018-05-24T16:55:39.210Z,27.55
2018-05-24T16:58:06.977Z,25.73
2018-05-24T17:00:34.484Z,20.00
2018-05-24T17:03:01.895Z,28.02
2018-05-24T17:05:29.561Z,28.25
2018-05-24T17:07:57.124Z,34.42
2018-05-24T17:10:24.573Z,22.95
2018-05-24T17:12:51.976Z,20.33
2018-05-24T17:15:19.408Z,20.75
2018-05-24T17:17:46.843Z,23.12
2018-05-24T17:20:14.266Z,22.52
2018-05-24T17:22:41.677Z,20.98
2018-05-24T17:25:09.096Z,23.95
2018-05-24T17:27:36.512Z,16.50
2018-05-24T17:30:03.932Z,21.92
2018-05-24T17:32:31.433Z,13.80
2018-05-24T17:34:58.848Z,21.35
2018-05-24T17:37:26.272Z,19.45
2018-05-24T17:39:53.693Z,12.20
2018-05-24T17:42:21.108Z,14.73
2018-05-24T17:44:48.642Z,12.05
2018-05-24T17:47:16.061Z,17.12
2018-05-24T17:49:43.480Z,22.45
2018-05-24T17:52:10.908Z,17.17
2018-05-24T17:54:38.345Z,18.25
2018-05-24T17:57:05.752Z,20.95
2018-05-24T17:59:33.254Z,16.20
2018-05-24T18:02:00.678Z,19.77
2018-05-24T18:04:28.180Z,15.57
2018-05-24T18:06:55.606Z,23.80
2018-05-24T18:09:23.032Z,18.08
2018-05-24T18:11:50.450Z,18.02
2018-05-24T18:14:17.876Z,18.27
2018-05-24T18:16:45.288Z,15.65
2018-05-24T18:19:12.713Z,17.23
2018-05-24T18:21:40.133Z,15.05
2018-05-24T18:24:07.564Z,20.00
2018-05-24T18:26:35.069Z,18.00
2018-05-24T18:29:02.501Z,18.75
2018-05-24T18:31:29.928Z,20.48
2018-05-24T18:33:57.645Z,17.45
2018-05-24T18:36:25.209Z,17.12
2018-05-24T18:38:52.640Z,16.92
2018-05-24T18:41:20.147Z,11.12
2018-05-24T18:43:47.565Z,13.40
2018-05-24T18:46:15.039Z,16.02
2018-05-24T18:48:42.563Z,13.23
2018-05-24T18:51:10.000Z,13.00
2018-05-24T18:53:37.421Z,12.00
2018-05-24T18:56:04.966Z,13.80
2018-05-24T18:58:32.377Z,15.75
2018-05-24T19:00:59.820Z,15.32
2018-05-24T19:03:27.317Z,10.80
2018-05-24T19:05:54.737Z,19.05
2018-05-24T19:08:22.157Z,20.10
2018-05-24T19:10:50.015Z,10.35
2018-05-24T19:13:17.552Z,18.33
2018-05-24T19:15:44.993Z,11.20
2018-05-24T19:18:12.417Z,10.88
2018-05-24T19:20:43.192Z,10.77
2018-05-24T19:23:10.642Z,16.52
2018-05-24T19:25:38.056Z,8.95
2018-05-24T19:28:05.709Z,9.30
2018-05-24T19:30:33.120Z,15.88
2018-05-24T19:33:00.567Z,11.68
2018-05-24T19:35:28.037Z,12.25
2018-05-24T19:37:55.457Z,11.75
2018-05-24T19:40:22.885Z,10.63
2018-05-24T19:42:50.296Z,9.75
2018-05-24T19:45:17.737Z,11.43
2018-05-24T19:47:45.177Z,18.27
2018-05-24T19:50:12.592Z,14.77
2018-05-24T19:52:40.017Z,10.30
2018-05-24T19:55:07.474Z,9.25
2018-05-24T19:57:34.887Z,16.92
2018-05-24T20:00:02.403Z,17.08
2018-05-24T20:02:29.828Z,13.35
2018-05-24T20:04:57.260Z,11.02
2018-05-24T20:07:24.752Z,12.00
2018-05-24T20:09:52.165Z,9.40
2018-05-24T20:12:19.639Z,11.23
2018-05-24T20:14:47.053Z,8.57
2018-05-24T20:17:14.464Z,11.55
2018-05-24T20:19:41.921Z,11.45
2018-05-24T20:22:09.336Z,8.75
2018-05-24T20:24:36.746Z,9.77
2018-05-24T20:27:04.185Z,8.95
2018-05-24T20:29:31.640Z,8.95
2018-05-24T20:31:59.073Z,10.65
2018-05-24T20:34:26.480Z,6.37
2018-05-24T20:36:53.904Z,6.75
2018-05-24T20:39:21.319Z,6.65
2018-05-24T20:41:48.732Z,8.15
2018-05-24T20:44:16.148Z,6.40
2018-05-24T20:46:48.403Z,6.60
2018-05-24T20:49:15.816Z,4.43
2018-05-24T20:51:43.246Z,5.15
2018-05-24T20:54:10.649Z,6.45
2018-05-24T20:56:38.070Z,7.07
2018-05-24T20:59:05.456Z,7.10
2018-05-24T21:01:32.877Z,8.30
2018-05-24T21:04:00.294Z,4.82
2018-05-24T21:06:27.711Z,6.00
2018-05-24T21:08:55.123Z,6.85
2018-05-24T21:11:22.550Z,9.70
2018-05-24T21:13:49.962Z,8.63
2018-05-24T21:16:17.381Z,9.38
2018-05-24T21:18:44.784Z,8.60
2018-05-24T21:21:12.213Z,10.35
2018-05-24T21:23:39.651Z,6.18
2018-05-24T21:26:07.056Z,8.07
2018-05-24T21:28:34.460Z,8.90
2018-05-24T21:31:01.886Z,9.02
2018-05-24T21:33:29.304Z,9.15
2018-05-24T21:35:56.728Z,10.20
2018-05-24T21:38:24.156Z,11.40
2018-05-24T21:40:51.569Z,6.62
2018-05-24T21:43:18.982Z,8.95
2018-05-24T21:45:46.397Z,7.87
2018-05-24T21:48:13.804Z,7.93
2018-05-24T21:50:41.221Z,8.30
2018-05-24T21:53:08.628Z,8.63
2018-05-24T21:55:36.041Z,6.50
2018-05-24T21:58:03.465Z,6.70
2018-05-24T22:00:30.872Z,7.05
2018-05-24T22:02:58.295Z,6.70
2018-05-24T22:05:25.704Z,8.07
2018-05-24T22:07:53.121Z,7.50
2018-05-24T22:10:20.543Z,7.82
2018-05-24T22:12:47.957Z,5.47
2018-05-24T22:15:15.368Z,9.55
2018-05-24T22:17:42.790Z,5.10
2018-05-24T22:20:10.203Z,8.10
2018-05-24T22:22:37.615Z,4.57
2018-05-24T22:25:05.024Z,8.45
2018-05-24T22:27:32.444Z,4.07
2018-05-24T22:29:59.853Z,5.57
2018-05-24T22:32:27.275Z,5.28
2018-05-24T22:34:54.692Z,5.65
2018-05-24T22:37:22.100Z,4.93
2018-05-24T22:39:49.515Z,4.50
2018-05-24T22:42:16.932Z,4.45
2018-05-24T22:44:44.382Z,5.22
2018-05-24T22:47:11.756Z,5.60
2018-05-24T22:49:39.168Z,6.40
2018-05-24T22:52:06.593Z,5.80
2018-05-24T22:54:33.995Z,5.75
2018-05-24T22:57:01.411Z,5.50
2018-05-24T22:59:28.864Z,7.22
2018-05-24T23:01:56.273Z,8.35
2018-05-24T23:04:23.689Z,5.45
2018-05-24T23:06:51.113Z,6.47
2018-05-24T23:09:18.520Z,6.72
2018-05-24T23:11:45.950Z,6.32
2018-05-24T23:14:13.370Z,5.10
2018-05-24T23:16:40.780Z,5.20
2018-05-24T23:19:08.195Z,8.57
2018-05-24T23:21:35.612Z,5.95
2018-05-24T23:24:03.024Z,7.87
2018-05-24T23:26:30.429Z,4.55
2018-05-24T23:28:57.844Z,5.47
2018-05-24T23:31:25.254Z,4.28
2018-05-24T23:33:52.671Z,3.97
2018-05-24T23:36:20.084Z,6.15
2018-05-24T23:38:47.498Z,6.25
2018-05-24T23:41:14.901Z,3.55
2018-05-24T23:43:42.336Z,4.90
2018-05-24T23:46:09.749Z,4.10
2018-05-24T23:48:37.177Z,3.78
2018-05-24T23:51:04.571Z,3.87
2018-05-24T23:53:31.992Z,8.88
2018-05-24T23:55:59.408Z,5.80
2018-05-24T23:58:26.825Z,5.15
